createdAt,value
2017-10-13T00:00:15.080Z,34.39
2017-10-13T00:02:46.517Z,34.42
2017-10-13T00:05:17.882Z,34.41
2017-10-13T00:13:21.049Z,34.26
2017-10-13T00:24:39.393Z,34.12
2017-10-13T00:27:11.267Z,34.12
2017-10-13T00:29:54.284Z,34.12
2017-10-13T00:32:26.780Z,34.08
2017-10-13T00:34:58.303Z,34.12
2017-10-13T00:37:46.130Z,34.14
2017-10-13T00:40:16.897Z,34.13
2017-10-13T00:42:48.717Z,34.08
2017-10-13T00:45:19.326Z,34.08
2017-10-13T00:47:51.176Z,34.05
2017-10-13T00:50:21.595Z,34.05
2017-10-13T00:52:55.870Z,34.07
2017-10-13T00:55:31.982Z,34.06
2017-10-13T00:58:04.130Z,34.07
2017-10-13T01:00:34.512Z,34.09
2017-10-13T01:03:05.865Z,34.06
2017-10-13T01:05:36.406Z,34.07
2017-10-13T01:08:06.032Z,34.10
2017-10-13T01:10:36.596Z,34.07
2017-10-13T01:13:08.078Z,34.09
2017-10-13T01:15:44.100Z,34.08
2017-10-13T01:18:19.605Z,34.05
2017-10-13T01:20:51.629Z,34.04
2017-10-13T01:23:37.303Z,34.04
2017-10-13T01:26:24.397Z,33.98
2017-10-13T01:29:04.038Z,34.03
2017-10-13T01:31:53.239Z,34.03
2017-10-13T01:34:24.402Z,34.01
2017-10-13T01:37:57.151Z,34.01
2017-10-13T01:40:34.647Z,33.96
2017-10-13T01:43:06.256Z,33.93
2017-10-13T01:45:38.315Z,33.97
2017-10-13T01:48:09.991Z,33.98
2017-10-13T01:50:43.076Z,33.98
2017-10-13T01:53:18.227Z,33.94
2017-10-13T01:55:59.833Z,33.95
2017-10-13T01:58:39.028Z,33.97
2017-10-13T02:01:09.841Z,33.94
2017-10-13T02:03:54.348Z,33.93
2017-10-13T02:06:32.346Z,33.92
2017-10-13T02:09:03.205Z,33.93
2017-10-13T02:12:11.890Z,33.89
2017-10-13T02:14:48.057Z,33.96
2017-10-13T02:17:20.339Z,33.94
2017-10-13T02:19:58.274Z,33.91
2017-10-13T02:22:28.665Z,33.93
2017-10-13T02:25:00.602Z,33.93
2017-10-13T02:27:31.025Z,33.88
2017-10-13T02:30:08.542Z,33.91
2017-10-13T02:32:38.744Z,33.87
2017-10-13T02:35:11.811Z,33.86
2017-10-13T02:37:44.793Z,33.88
2017-10-13T02:40:15.813Z,33.84
2017-10-13T02:42:47.613Z,33.71
2017-10-13T02:45:17.507Z,33.83
2017-10-13T02:47:47.710Z,33.85
2017-10-13T02:50:18.154Z,33.84
2017-10-13T02:52:48.309Z,33.84
2017-10-13T02:55:19.870Z,33.80
2017-10-13T02:57:50.745Z,33.83
2017-10-13T03:00:20.924Z,33.83
2017-10-13T03:02:51.287Z,33.83
2017-10-13T03:05:21.868Z,33.81
2017-10-13T03:07:54.575Z,33.81
2017-10-13T03:10:24.985Z,33.81
2017-10-13T03:12:55.520Z,33.82
2017-10-13T03:15:25.857Z,33.78
2017-10-13T03:17:56.053Z,33.80
2017-10-13T03:20:26.742Z,33.79
2017-10-13T03:22:59.355Z,33.78
2017-10-13T03:25:30.349Z,33.76
2017-10-13T03:28:00.925Z,33.75
2017-10-13T03:30:34.572Z,33.74
2017-10-13T03:33:05.575Z,33.75
2017-10-13T03:35:37.957Z,33.73
2017-10-13T03:38:08.120Z,33.73
2017-10-13T03:40:38.278Z,33.73
2017-10-13T03:43:08.164Z,33.72
2017-10-13T03:45:43.757Z,33.68
2017-10-13T03:48:14.293Z,33.70
2017-10-13T03:50:48.113Z,33.71
2017-10-13T03:53:21.946Z,33.68
2017-10-13T03:55:52.873Z,33.65
2017-10-13T03:58:23.970Z,33.64
2017-10-13T04:00:54.986Z,33.67
2017-10-13T04:03:25.730Z,33.68
2017-10-13T04:05:56.082Z,33.67
2017-10-13T04:08:29.439Z,33.62
2017-10-13T04:11:06.105Z,33.64
2017-10-13T04:13:36.884Z,33.64
2017-10-13T04:16:10.043Z,33.65
2017-10-13T04:18:43.765Z,33.64
2017-10-13T04:21:14.715Z,33.58
2017-10-13T04:23:52.245Z,33.62
2017-10-13T04:26:23.105Z,33.60
2017-10-13T04:28:54.780Z,33.59
2017-10-13T04:31:25.282Z,33.54
2017-10-13T04:33:55.570Z,33.57
2017-10-13T04:36:26.375Z,33.52
2017-10-13T04:38:56.325Z,33.54
2017-10-13T04:41:27.376Z,33.51
2017-10-13T04:44:04.742Z,33.53
2017-10-13T04:46:36.324Z,33.53
2017-10-13T04:49:07.961Z,33.52
2017-10-13T04:51:38.122Z,33.51
2017-10-13T04:54:16.675Z,33.52
2017-10-13T04:56:48.036Z,33.47
2017-10-13T04:59:17.781Z,33.49
2017-10-13T05:01:52.724Z,33.46
2017-10-13T05:04:22.823Z,33.47
2017-10-13T05:06:53.110Z,33.46
2017-10-13T05:09:31.681Z,33.45
2017-10-13T05:12:02.797Z,33.43
2017-10-13T05:14:34.650Z,33.47
2017-10-13T05:17:05.308Z,33.49
2017-10-13T05:19:36.531Z,33.51
2017-10-13T05:22:06.620Z,33.53
2017-10-13T05:24:36.842Z,33.53
2017-10-13T05:27:07.191Z,33.51
2017-10-13T05:29:37.786Z,33.50
2017-10-13T05:32:08.866Z,33.53
2017-10-13T05:34:39.302Z,33.53
2017-10-13T05:37:10.002Z,33.52
2017-10-13T05:39:44.582Z,33.53
2017-10-13T05:42:14.297Z,33.52
2017-10-13T05:44:46.539Z,33.52
2017-10-13T05:47:16.263Z,33.49
2017-10-13T05:49:46.429Z,33.51
2017-10-13T05:52:16.770Z,33.51
2017-10-13T05:54:47.113Z,33.50
2017-10-13T05:57:18.337Z,33.49
2017-10-13T05:59:52.672Z,33.47
2017-10-13T06:02:23.329Z,33.45
2017-10-13T06:04:53.138Z,33.48
2017-10-13T06:07:23.406Z,33.47
2017-10-13T06:09:53.920Z,33.45
2017-10-13T06:12:24.177Z,33.44
2017-10-13T06:14:54.466Z,33.44
2017-10-13T06:17:26.689Z,33.45
2017-10-13T06:19:56.790Z,33.47
2017-10-13T06:22:27.518Z,33.47
2017-10-13T06:24:58.795Z,33.45
2017-10-13T06:27:29.082Z,33.44
2017-10-13T06:29:58.811Z,33.41
2017-10-13T06:32:30.807Z,33.43
2017-10-13T06:35:00.590Z,33.42
2017-10-13T06:37:31.816Z,33.42
2017-10-13T06:40:01.586Z,33.41
2017-10-13T06:42:32.249Z,33.42
2017-10-13T06:45:02.207Z,33.43
2017-10-13T06:47:32.008Z,33.41
2017-10-13T06:50:02.037Z,33.39
2017-10-13T06:52:32.463Z,33.38
2017-10-13T06:55:02.804Z,33.35
2017-10-13T06:57:33.431Z,33.37
2017-10-13T07:00:04.362Z,33.38
2017-10-13T07:02:34.567Z,33.38
2017-10-13T07:05:04.620Z,33.35
2017-10-13T07:07:34.792Z,33.36
2017-10-13T07:10:05.043Z,33.35
2017-10-13T07:12:34.988Z,33.35
2017-10-13T07:15:05.631Z,33.36
2017-10-13T07:17:35.965Z,33.36
2017-10-13T07:20:06.061Z,33.35
2017-10-13T07:22:38.594Z,33.34
2017-10-13T07:25:10.439Z,33.33
2017-10-13T07:27:44.548Z,33.34
2017-10-13T07:30:16.430Z,33.27
2017-10-13T07:32:50.439Z,33.31
2017-10-13T07:35:22.559Z,33.31
2017-10-13T07:37:52.757Z,33.30
2017-10-13T07:40:26.098Z,33.29
2017-10-13T07:43:00.523Z,33.28
2017-10-13T07:45:31.210Z,33.27
2017-10-13T07:48:01.318Z,33.26
2017-10-13T07:50:31.897Z,33.26
2017-10-13T07:53:02.565Z,33.26
2017-10-13T07:55:35.336Z,33.26
2017-10-13T07:58:08.556Z,33.25
2017-10-13T08:00:38.251Z,33.24
2017-10-13T08:03:09.307Z,33.24
2017-10-13T08:05:41.142Z,33.24
2017-10-13T08:08:12.146Z,33.23
2017-10-13T08:10:44.174Z,33.22
2017-10-13T08:13:15.158Z,33.21
2017-10-13T08:15:46.959Z,33.22
2017-10-13T08:18:16.914Z,33.21
2017-10-13T08:20:46.842Z,33.21
2017-10-13T08:23:20.918Z,33.21
2017-10-13T08:25:52.407Z,33.21
2017-10-13T08:28:24.658Z,33.21
2017-10-13T08:30:58.689Z,33.22
2017-10-13T08:33:29.120Z,33.23
2017-10-13T08:36:00.206Z,33.22
2017-10-13T08:38:29.921Z,33.22
2017-10-13T08:41:00.374Z,33.23
2017-10-13T08:43:31.212Z,33.21
2017-10-13T08:46:03.980Z,33.19
2017-10-13T08:48:35.516Z,33.19
2017-10-13T08:51:05.908Z,33.19
2017-10-13T08:53:36.080Z,33.19
2017-10-13T08:56:07.787Z,33.17
2017-10-13T08:58:37.739Z,33.19
2017-10-13T09:01:08.298Z,33.18
2017-10-13T09:03:38.881Z,33.18
2017-10-13T09:06:09.814Z,33.16
2017-10-13T09:08:41.872Z,33.15
2017-10-13T09:11:12.345Z,33.16
2017-10-13T09:13:44.445Z,33.17
2017-10-13T09:16:15.910Z,33.15
2017-10-13T09:18:46.303Z,33.14
2017-10-13T09:21:17.359Z,33.15
2017-10-13T09:23:47.457Z,33.13
2017-10-13T09:26:17.637Z,33.15
2017-10-13T09:28:47.886Z,33.15
2017-10-13T09:31:18.921Z,33.13
2017-10-13T09:33:49.123Z,33.14
2017-10-13T09:36:19.582Z,33.14
2017-10-13T09:38:49.918Z,33.10
2017-10-13T09:41:21.059Z,33.10
2017-10-13T09:49:45.501Z,32.83
2017-10-13T09:52:37.044Z,32.89
2017-10-13T09:55:08.037Z,33.00
2017-10-13T10:07:38.041Z,32.79
2017-10-13T10:10:11.752Z,32.96
2017-10-13T10:12:42.265Z,33.04
2017-10-13T11:44:06.039Z,35.95
2017-10-13T11:46:39.264Z,35.35
2017-10-13T11:49:09.362Z,34.88
2017-10-13T11:51:39.377Z,34.55
2017-10-13T11:54:12.277Z,34.32
2017-10-13T11:56:46.859Z,34.15
2017-10-13T11:59:18.287Z,34.03
2017-10-13T12:01:48.616Z,33.90
2017-10-13T12:04:18.846Z,33.84
2017-10-13T12:06:51.320Z,33.78
2017-10-13T12:09:21.812Z,33.72
2017-10-13T12:12:03.279Z,33.65
2017-10-13T12:14:35.545Z,33.60
2017-10-13T12:17:08.481Z,33.58
2017-10-13T12:19:41.901Z,33.54
2017-10-13T12:22:14.302Z,33.54
2017-10-13T12:24:54.626Z,33.50
2017-10-13T12:27:31.773Z,33.48
2017-10-13T12:32:50.238Z,33.45
2017-10-13T12:35:22.327Z,33.45
2017-10-13T12:37:52.511Z,33.44
2017-10-13T12:40:24.148Z,33.43
2017-10-13T12:42:54.958Z,33.40
2017-10-13T12:45:25.048Z,33.39
2017-10-13T12:47:58.099Z,33.39
2017-10-13T12:50:29.301Z,33.37
2017-10-13T12:53:00.378Z,33.37
2017-10-13T12:55:32.476Z,33.36
2017-10-13T12:58:03.816Z,33.35
2017-10-13T13:00:34.189Z,33.37
2017-10-13T13:03:04.050Z,33.38
2017-10-13T13:05:35.165Z,33.38
2017-10-13T13:08:05.962Z,33.37
2017-10-13T13:10:37.058Z,33.36
2017-10-13T13:13:11.243Z,33.34
2017-10-13T13:15:45.563Z,33.35
2017-10-13T13:18:16.676Z,33.34
2017-10-13T13:20:47.161Z,33.33
2017-10-13T13:23:21.704Z,33.35
2017-10-13T13:25:52.621Z,33.34
2017-10-13T13:28:23.691Z,33.31
2017-10-13T13:30:53.612Z,33.34
2017-10-13T13:33:24.675Z,33.33
2017-10-13T13:35:54.859Z,33.34
2017-10-13T13:38:26.081Z,33.34
2017-10-13T13:40:57.743Z,33.34
2017-10-13T13:43:28.934Z,33.32
2017-10-13T13:45:59.483Z,33.35
2017-10-13T13:48:31.006Z,33.32
2017-10-13T13:51:02.582Z,33.33
2017-10-13T13:53:33.644Z,33.34
2017-10-13T13:56:06.552Z,33.36
2017-10-13T13:58:37.269Z,33.35
2017-10-13T14:01:08.870Z,33.37
2017-10-13T14:03:47.438Z,33.36
2017-10-13T14:09:10.782Z,33.35
2017-10-13T14:11:47.413Z,33.37
2017-10-13T14:14:25.230Z,33.40
2017-10-13T14:17:00.263Z,33.39
2017-10-13T14:19:43.913Z,33.40
2017-10-13T14:22:21.574Z,33.42
2017-10-13T14:24:54.152Z,33.42
2017-10-13T14:27:27.108Z,33.43
2017-10-13T14:30:01.755Z,33.42
2017-10-13T14:32:33.032Z,33.42
2017-10-13T14:35:12.918Z,33.37
2017-10-13T14:37:59.785Z,33.40
2017-10-13T14:40:33.855Z,33.42
2017-10-13T14:43:09.636Z,33.42
2017-10-13T14:45:44.043Z,33.41
2017-10-13T14:48:17.025Z,33.43
2017-10-13T14:50:49.308Z,33.41
2017-10-13T14:53:53.759Z,33.41
2017-10-13T14:56:25.454Z,33.40
2017-10-13T14:58:58.598Z,33.42
2017-10-13T15:12:38.746Z,33.18
2017-10-13T16:10:37.638Z,32.87
2017-10-13T16:13:09.202Z,33.23
2017-10-13T16:15:48.363Z,33.39
2017-10-13T16:18:18.919Z,33.47
2017-10-13T16:24:00.867Z,33.44
2017-10-13T16:26:35.383Z,33.49
2017-10-13T16:29:06.404Z,33.50
2017-10-13T16:31:36.693Z,33.52
2017-10-13T16:34:10.165Z,33.53
2017-10-13T16:36:44.711Z,33.55
2017-10-13T16:39:15.582Z,33.57
2017-10-13T16:41:47.994Z,33.59
2017-10-13T16:44:18.759Z,33.61
2017-10-13T16:46:49.177Z,33.61
2017-10-13T16:49:19.351Z,33.62
2017-10-13T16:51:50.052Z,33.64
2017-10-13T16:54:21.004Z,33.65
2017-10-13T16:56:51.566Z,33.65
2017-10-13T16:59:22.624Z,33.68
2017-10-13T17:01:53.693Z,33.67
2017-10-13T17:04:25.049Z,33.69
2017-10-13T17:06:57.808Z,33.67
2017-10-13T17:09:29.006Z,33.68
2017-10-13T17:11:59.160Z,33.69
2017-10-13T17:14:30.455Z,33.93
2017-10-13T17:17:03.228Z,33.87
2017-10-13T17:19:36.060Z,33.81
2017-10-13T17:22:06.873Z,33.71
2017-10-13T17:24:39.435Z,33.66
2017-10-13T17:27:10.223Z,33.66
2017-10-13T17:29:44.250Z,33.67
2017-10-13T17:32:15.522Z,33.72
2017-10-13T17:34:49.657Z,33.76
2017-10-13T17:37:22.296Z,33.83
2017-10-13T17:39:53.807Z,33.86
2017-10-13T17:45:47.031Z,37.16
2017-10-13T17:48:17.812Z,36.72
2017-10-13T17:50:49.610Z,36.80
2017-10-13T17:53:20.013Z,36.99
2017-10-13T17:55:55.659Z,37.29
2017-10-13T17:58:27.771Z,37.58
2017-10-13T18:00:59.576Z,37.84
2017-10-13T18:03:30.217Z,38.14
2017-10-13T18:06:02.098Z,38.42
2017-10-13T18:08:32.612Z,38.63
2017-10-13T18:11:06.382Z,38.81
2017-10-13T18:13:39.650Z,38.98
2017-10-13T18:16:11.702Z,39.11
2017-10-13T18:19:07.312Z,39.22
2017-10-13T18:21:39.775Z,39.40
2017-10-13T18:24:11.283Z,39.54
2017-10-13T18:26:45.120Z,39.61
2017-10-13T18:29:15.469Z,39.67
2017-10-13T18:31:45.761Z,39.76
2017-10-13T18:34:16.263Z,39.81
2017-10-13T18:36:46.875Z,39.85
2017-10-13T18:39:17.368Z,39.95
2017-10-13T18:41:48.900Z,39.98
2017-10-13T18:44:20.972Z,39.96
2017-10-13T18:46:53.865Z,39.91
2017-10-13T18:49:28.475Z,39.97
2017-10-13T18:52:00.756Z,39.96
2017-10-13T18:54:37.490Z,39.90
2017-10-13T18:57:13.775Z,39.76
2017-10-13T18:59:52.624Z,39.80
2017-10-13T19:02:24.537Z,39.83
2017-10-13T19:04:58.024Z,39.87
2017-10-13T19:07:30.189Z,39.83
2017-10-13T19:12:54.121Z,39.86
2017-10-13T19:15:25.368Z,39.88
2017-10-13T19:17:57.823Z,39.79
2017-10-13T19:20:31.987Z,39.79
2017-10-13T19:23:04.646Z,39.80
2017-10-13T19:25:55.425Z,39.80
2017-10-13T19:28:26.640Z,39.86
2017-10-13T19:30:57.677Z,39.78
2017-10-13T19:33:32.595Z,39.89
2017-10-13T19:36:04.360Z,39.96
2017-10-13T19:38:36.178Z,40.02
2017-10-13T19:41:17.414Z,40.04
2017-10-13T19:43:49.180Z,39.94
2017-10-13T19:46:22.813Z,39.95
2017-10-13T19:48:56.724Z,39.98
2017-10-13T19:51:36.594Z,40.00
2017-10-13T19:54:10.322Z,40.00
2017-10-13T19:56:49.438Z,39.96
2017-10-13T19:59:24.244Z,40.05
2017-10-13T20:01:55.919Z,40.23
2017-10-13T20:04:26.664Z,40.36
2017-10-13T20:06:59.096Z,40.37
2017-10-13T20:09:31.585Z,40.45
2017-10-13T20:12:04.852Z,40.49
2017-10-13T20:14:41.805Z,40.57
2017-10-13T20:17:14.726Z,40.58
2017-10-13T20:19:50.574Z,40.61
2017-10-13T20:22:22.832Z,40.50
2017-10-13T20:24:55.046Z,40.36
2017-10-13T20:27:31.658Z,40.34
2017-10-13T20:30:10.623Z,40.26
2017-10-13T20:32:41.344Z,40.26
2017-10-13T20:35:18.446Z,40.22
2017-10-13T20:37:51.113Z,40.11
2017-10-13T20:40:36.453Z,40.05
2017-10-13T20:43:25.513Z,39.91
2017-10-13T20:49:15.592Z,39.94
2017-10-13T20:51:47.274Z,40.01
2017-10-13T20:54:18.063Z,40.05
2017-10-13T20:56:50.295Z,40.08
2017-10-13T20:59:22.772Z,40.11
2017-10-13T21:01:53.872Z,40.11
2017-10-13T21:04:24.494Z,40.14
2017-10-13T21:06:58.459Z,40.11
2017-10-13T21:12:20.606Z,40.10
2017-10-13T21:15:01.790Z,40.10
2017-10-13T21:18:21.631Z,40.07
2017-10-13T21:20:58.403Z,40.05
2017-10-13T21:23:38.088Z,40.05
2017-10-13T21:26:15.895Z,40.03
2017-10-13T21:29:17.217Z,39.95
2017-10-13T21:32:20.609Z,39.76
2017-10-13T21:35:31.895Z,39.70
2017-10-13T21:38:11.231Z,39.72
2017-10-13T23:12:53.799Z,43.85
2017-10-13T23:15:27.090Z,43.16
2017-10-13T23:18:02.401Z,42.61
2017-10-13T23:20:37.351Z,42.17
2017-10-13T23:23:15.358Z,41.81
2017-10-13T23:25:50.040Z,41.56
2017-10-13T23:28:22.507Z,41.46
2017-10-13T23:30:56.195Z,41.29
2017-10-13T23:33:26.883Z,41.20
2017-10-13T23:35:57.189Z,41.12
2017-10-13T23:38:27.676Z,41.08
2017-10-13T23:40:57.909Z,41.03
2017-10-13T23:43:29.282Z,40.95
2017-10-13T23:46:04.429Z,40.91
2017-10-13T23:48:38.500Z,40.88
2017-10-13T23:51:11.500Z,40.84
2017-10-13T23:53:46.605Z,40.87
2017-10-13T23:56:18.082Z,40.90
2017-10-13T23:58:49.407Z,40.91
